Terminal Aerodrome Forecast
Issued by NWS

Home | Current Version | Previous Version | Text Only | Print | Product List | Glossary On
Versions: 1 2 3 4 5 6 7 8 9 10 11 12 13 14 15 16 17 18 19 20
587
FTUS46 KLOX 211139
TAFPRB
TAF
KPRB 211139Z 2112/2212 31010KT P6SM OVC035
     FM211600 30007KT P6SM BKN040
     FM211800 32015G23KT P6SM FEW025 SCT050
     FM220300 31010KT P6SM SKC
     FM220800 VRB03KT P6SM SKC=

USA.gov is the U.S. government's official web portal to all federal, state and local government web resources and services.